sensor_id;sensor_type;location;lat;lon;timestamp;temperature;humidity
76172;DHT22;64929;51.178;4.138;2023-04-16T00:02:06;10.20;72.90
76172;DHT22;64929;51.178;4.138;2023-04-16T00:04:32;10.10;73.60
76172;DHT22;64929;51.178;4.138;2023-04-16T00:06:58;10.30;73.20
76172;DHT22;64929;51.178;4.138;2023-04-16T00:09:24;10.30;73.00
76172;DHT22;64929;51.178;4.138;2023-04-16T00:11:50;10.30;72.60
76172;DHT22;64929;51.178;4.138;2023-04-16T00:14:15;10.40;72.20
76172;DHT22;64929;51.178;4.138;2023-04-16T00:16:41;10.20;72.60
76172;DHT22;64929;51.178;4.138;2023-04-16T00:19:06;10.20;72.70
76172;DHT22;64929;51.178;4.138;2023-04-16T00:21:32;10.20;73.50
76172;DHT22;64929;51.178;4.138;2023-04-16T00:23:58;10.30;72.80
76172;DHT22;64929;51.178;4.138;2023-04-16T00:26:23;10.20;73.20
76172;DHT22;64929;51.178;4.138;2023-04-16T00:28:49;10.30;73.60
76172;DHT22;64929;51.178;4.138;2023-04-16T00:31:15;10.20;74.20
76172;DHT22;64929;51.178;4.138;2023-04-16T00:33:40;10.20;74.10
76172;DHT22;64929;51.178;4.138;2023-04-16T00:36:06;10.30;73.90
76172;DHT22;64929;51.178;4.138;2023-04-16T00:38:32;10.40;74.00
76172;DHT22;64929;51.178;4.138;2023-04-16T00:40:58;10.40;73.40
76172;DHT22;64929;51.178;4.138;2023-04-16T00:43:26;10.50;73.60
76172;DHT22;64929;51.178;4.138;2023-04-16T00:45:53;10.50;73.80
76172;DHT22;64929;51.178;4.138;2023-04-16T00:48:20;10.30;73.60
76172;DHT22;64929;51.178;4.138;2023-04-16T00:50:47;10.40;73.80
76172;DHT22;64929;51.178;4.138;2023-04-16T00:53:13;10.30;73.90
76172;DHT22;64929;51.178;4.138;2023-04-16T00:55:39;10.30;73.70
76172;DHT22;64929;51.178;4.138;2023-04-16T00:58:05;10.30;73.90
76172;DHT22;64929;51.178;4.138;2023-04-16T01:00:31;10.40;73.80
76172;DHT22;64929;51.178;4.138;2023-04-16T01:02:58;10.40;73.80
76172;DHT22;64929;51.178;4.138;2023-04-16T01:05:24;10.40;73.90
76172;DHT22;64929;51.178;4.138;2023-04-16T01:07:51;10.30;74.20
76172;DHT22;64929;51.178;4.138;2023-04-16T01:10:16;10.30;74.30
76172;DHT22;64929;51.178;4.138;2023-04-16T01:12:42;10.20;74.70
76172;DHT22;64929;51.178;4.138;2023-04-16T01:15:08;10.20;74.50
76172;DHT22;64929;51.178;4.138;2023-04-16T01:17:35;10.20;74.90
76172;DHT22;64929;51.178;4.138;2023-04-16T01:20:01;10.10;75.50
76172;DHT22;64929;51.178;4.138;2023-04-16T01:22:27;10.20;74.80
76172;DHT22;64929;51.178;4.138;2023-04-16T01:24:53;10.30;74.70
76172;DHT22;64929;51.178;4.138;2023-04-16T01:27:18;10.20;74.90
76172;DHT22;64929;51.178;4.138;2023-04-16T01:29:45;10.30;74.90
76172;DHT22;64929;51.178;4.138;2023-04-16T01:32:10;10.20;74.90
76172;DHT22;64929;51.178;4.138;2023-04-16T01:34:36;10.20;75.30
76172;DHT22;64929;51.178;4.138;2023-04-16T01:37:03;10.20;75.30
76172;DHT22;64929;51.178;4.138;2023-04-16T01:39:28;10.30;75.30
76172;DHT22;64929;51.178;4.138;2023-04-16T01:41:54;10.40;75.10
76172;DHT22;64929;51.178;4.138;2023-04-16T01:44:20;10.40;75.00
76172;DHT22;64929;51.178;4.138;2023-04-16T01:46:47;10.50;74.80
76172;DHT22;64929;51.178;4.138;2023-04-16T01:49:14;10.60;74.70
76172;DHT22;64929;51.178;4.138;2023-04-16T01:51:40;10.50;75.20
76172;DHT22;64929;51.178;4.138;2023-04-16T01:54:06;10.50;75.10
76172;DHT22;64929;51.178;4.138;2023-04-16T01:56:32;10.40;75.70
76172;DHT22;64929;51.178;4.138;2023-04-16T01:58:58;10.40;75.60
76172;DHT22;64929;51.178;4.138;2023-04-16T02:01:23;10.30;76.40
76172;DHT22;64929;51.178;4.138;2023-04-16T02:03:50;10.50;75.90
76172;DHT22;64929;51.178;4.138;2023-04-16T02:06:16;10.40;76.00
76172;DHT22;64929;51.178;4.138;2023-04-16T02:08:42;10.20;76.90
76172;DHT22;64929;51.178;4.138;2023-04-16T02:11:08;10.20;76.70
76172;DHT22;64929;51.178;4.138;2023-04-16T02:13:34;10.20;76.70
76172;DHT22;64929;51.178;4.138;2023-04-16T02:15:59;10.20;76.50
76172;DHT22;64929;51.178;4.138;2023-04-16T02:18:25;10.30;76.30
76172;DHT22;64929;51.178;4.138;2023-04-16T02:20:51;10.30;76.50
76172;DHT22;64929;51.178;4.138;2023-04-16T02:23:17;10.40;76.40
76172;DHT22;64929;51.178;4.138;2023-04-16T02:25:44;10.50;76.30
76172;DHT22;64929;51.178;4.138;2023-04-16T02:28:11;10.40;76.40
76172;DHT22;64929;51.178;4.138;2023-04-16T02:30:38;10.40;76.70
76172;DHT22;64929;51.178;4.138;2023-04-16T02:33:05;10.30;77.00
76172;DHT22;64929;51.178;4.138;2023-04-16T02:35:35;10.30;77.10
76172;DHT22;64929;51.178;4.138;2023-04-16T02:38:02;10.30;77.00
76172;DHT22;64929;51.178;4.138;2023-04-16T02:40:28;10.40;76.60
76172;DHT22;64929;51.178;4.138;2023-04-16T02:42:54;10.40;76.00
76172;DHT22;64929;51.178;4.138;2023-04-16T02:45:21;10.30;76.10
76172;DHT22;64929;51.178;4.138;2023-04-16T02:47:47;10.50;75.30
76172;DHT22;64929;51.178;4.138;2023-04-16T02:50:13;10.50;75.40
76172;DHT22;64929;51.178;4.138;2023-04-16T02:52:39;10.40;75.70
76172;DHT22;64929;51.178;4.138;2023-04-16T02:55:05;10.50;75.40
76172;DHT22;64929;51.178;4.138;2023-04-16T02:57:31;10.40;75.80
76172;DHT22;64929;51.178;4.138;2023-04-16T02:59:57;10.40;75.70
76172;DHT22;64929;51.178;4.138;2023-04-16T03:02:22;10.40;75.50
76172;DHT22;64929;51.178;4.138;2023-04-16T03:04:48;10.30;75.80
76172;DHT22;64929;51.178;4.138;2023-04-16T03:07:14;10.30;76.00
76172;DHT22;64929;51.178;4.138;2023-04-16T03:09:39;10.40;75.90
76172;DHT22;64929;51.178;4.138;2023-04-16T03:12:05;10.30;75.90
76172;DHT22;64929;51.178;4.138;2023-04-16T03:14:31;10.30;76.10
76172;DHT22;64929;51.178;4.138;2023-04-16T03:16:57;10.30;76.10
76172;DHT22;64929;51.178;4.138;2023-04-16T03:19:23;10.20;76.30
76172;DHT22;64929;51.178;4.138;2023-04-16T03:21:48;10.30;76.20
76172;DHT22;64929;51.178;4.138;2023-04-16T03:24:14;10.30;76.20
76172;DHT22;64929;51.178;4.138;2023-04-16T03:26:40;10.30;76.40
76172;DHT22;64929;51.178;4.138;2023-04-16T03:29:06;10.10;76.40
76172;DHT22;64929;51.178;4.138;2023-04-16T03:31:32;10.10;76.70
76172;DHT22;64929;51.178;4.138;2023-04-16T03:33:57;10.30;76.50
76172;DHT22;64929;51.178;4.138;2023-04-16T03:36:23;10.30;76.50
76172;DHT22;64929;51.178;4.138;2023-04-16T03:38:49;10.20;76.40
76172;DHT22;64929;51.178;4.138;2023-04-16T03:41:15;10.20;76.40
76172;DHT22;64929;51.178;4.138;2023-04-16T03:43:41;10.20;77.10
76172;DHT22;64929;51.178;4.138;2023-04-16T03:46:07;10.30;76.70
76172;DHT22;64929;51.178;4.138;2023-04-16T03:48:32;10.40;76.90
76172;DHT22;64929;51.178;4.138;2023-04-16T03:50:58;10.40;77.00
76172;DHT22;64929;51.178;4.138;2023-04-16T03:53:24;10.20;77.30
76172;DHT22;64929;51.178;4.138;2023-04-16T03:55:50;10.30;77.30
76172;DHT22;64929;51.178;4.138;2023-04-16T03:58:16;10.30;77.40
76172;DHT22;64929;51.178;4.138;2023-04-16T04:00:42;10.30;77.30
76172;DHT22;64929;51.178;4.138;2023-04-16T04:03:08;10.30;77.30
76172;DHT22;64929;51.178;4.138;2023-04-16T04:05:41;10.10;78.00
76172;DHT22;64929;51.178;4.138;2023-04-16T04:08:07;10.30;77.50
76172;DHT22;64929;51.178;4.138;2023-04-16T04:10:34;10.30;77.00
76172;DHT22;64929;51.178;4.138;2023-04-16T04:13:04;10.30;77.10
76172;DHT22;64929;51.178;4.138;2023-04-16T04:15:30;10.30;77.20
76172;DHT22;64929;51.178;4.138;2023-04-16T04:17:56;10.40;77.00
76172;DHT22;64929;51.178;4.138;2023-04-16T04:20:22;10.20;77.80
76172;DHT22;64929;51.178;4.138;2023-04-16T04:22:49;10.20;77.90
76172;DHT22;64929;51.178;4.138;2023-04-16T04:25:15;10.30;77.40
76172;DHT22;64929;51.178;4.138;2023-04-16T04:27:41;10.30;77.70
76172;DHT22;64929;51.178;4.138;2023-04-16T04:30:07;10.20;77.90
76172;DHT22;64929;51.178;4.138;2023-04-16T04:32:33;10.20;77.80
76172;DHT22;64929;51.178;4.138;2023-04-16T04:35:00;10.20;77.90
76172;DHT22;64929;51.178;4.138;2023-04-16T04:37:26;10.30;77.70
76172;DHT22;64929;51.178;4.138;2023-04-16T04:39:52;10.30;77.70
76172;DHT22;64929;51.178;4.138;2023-04-16T04:42:18;10.20;77.70
76172;DHT22;64929;51.178;4.138;2023-04-16T04:44:45;10.30;77.50
76172;DHT22;64929;51.178;4.138;2023-04-16T04:47:11;10.30;77.40
76172;DHT22;64929;51.178;4.138;2023-04-16T04:49:36;10.40;76.80
76172;DHT22;64929;51.178;4.138;2023-04-16T04:52:03;10.30;77.20
76172;DHT22;64929;51.178;4.138;2023-04-16T04:54:30;10.30;77.10
76172;DHT22;64929;51.178;4.138;2023-04-16T04:56:55;10.10;77.40
76172;DHT22;64929;51.178;4.138;2023-04-16T04:59:22;10.20;77.40
76172;DHT22;64929;51.178;4.138;2023-04-16T05:01:48;10.10;77.60
76172;DHT22;64929;51.178;4.138;2023-04-16T05:04:13;10.20;77.40
76172;DHT22;64929;51.178;4.138;2023-04-16T05:06:39;10.40;76.90
76172;DHT22;64929;51.178;4.138;2023-04-16T05:09:05;10.20;77.40
76172;DHT22;64929;51.178;4.138;2023-04-16T05:11:39;10.20;77.40
76172;DHT22;64929;51.178;4.138;2023-04-16T05:14:05;10.20;77.90
76172;DHT22;64929;51.178;4.138;2023-04-16T05:16:31;10.30;77.70
76172;DHT22;64929;51.178;4.138;2023-04-16T05:18:56;10.00;78.60
76172;DHT22;64929;51.178;4.138;2023-04-16T05:21:23;10.00;78.70
76172;DHT22;64929;51.178;4.138;2023-04-16T05:23:48;10.20;78.10
76172;DHT22;64929;51.178;4.138;2023-04-16T05:26:14;10.30;77.90
76172;DHT22;64929;51.178;4.138;2023-04-16T05:28:40;10.20;77.70
76172;DHT22;64929;51.178;4.138;2023-04-16T05:31:05;10.10;77.70
76172;DHT22;64929;51.178;4.138;2023-04-16T05:33:31;10.00;77.90
76172;DHT22;64929;51.178;4.138;2023-04-16T05:35:57;10.10;77.60
76172;DHT22;64929;51.178;4.138;2023-04-16T05:38:22;10.00;77.80
76172;DHT22;64929;51.178;4.138;2023-04-16T05:40:48;10.10;77.70
76172;DHT22;64929;51.178;4.138;2023-04-16T05:43:14;9.90;78.10
76172;DHT22;64929;51.178;4.138;2023-04-16T05:45:39;10.10;78.10
76172;DHT22;64929;51.178;4.138;2023-04-16T05:48:08;10.00;78.40
76172;DHT22;64929;51.178;4.138;2023-04-16T05:50:35;10.10;77.90
76172;DHT22;64929;51.178;4.138;2023-04-16T05:53:02;10.00;77.80
76172;DHT22;64929;51.178;4.138;2023-04-16T05:55:28;10.00;78.30
76172;DHT22;64929;51.178;4.138;2023-04-16T05:57:54;10.00;78.10
76172;DHT22;64929;51.178;4.138;2023-04-16T06:00:20;10.00;78.60
76172;DHT22;64929;51.178;4.138;2023-04-16T06:02:45;10.10;78.10
76172;DHT22;64929;51.178;4.138;2023-04-16T06:05:11;10.30;77.80
76172;DHT22;64929;51.178;4.138;2023-04-16T06:07:37;10.30;77.50
76172;DHT22;64929;51.178;4.138;2023-04-16T06:10:03;10.30;77.60
76172;DHT22;64929;51.178;4.138;2023-04-16T06:12:28;10.40;77.10
76172;DHT22;64929;51.178;4.138;2023-04-16T06:14:54;10.20;77.80
76172;DHT22;64929;51.178;4.138;2023-04-16T06:17:20;10.40;78.00
76172;DHT22;64929;51.178;4.138;2023-04-16T06:19:47;10.40;77.90
76172;DHT22;64929;51.178;4.138;2023-04-16T06:22:12;10.50;77.70
76172;DHT22;64929;51.178;4.138;2023-04-16T06:24:38;10.60;77.10
76172;DHT22;64929;51.178;4.138;2023-04-16T06:27:04;10.60;77.50
76172;DHT22;64929;51.178;4.138;2023-04-16T06:29:29;10.50;78.20
76172;DHT22;64929;51.178;4.138;2023-04-16T06:31:55;10.40;78.50
76172;DHT22;64929;51.178;4.138;2023-04-16T06:34:21;10.40;79.20
76172;DHT22;64929;51.178;4.138;2023-04-16T06:36:46;10.20;79.80
76172;DHT22;64929;51.178;4.138;2023-04-16T06:39:12;10.30;79.70
76172;DHT22;64929;51.178;4.138;2023-04-16T06:41:38;10.10;80.40
76172;DHT22;64929;51.178;4.138;2023-04-16T06:44:03;10.20;80.70
76172;DHT22;64929;51.178;4.138;2023-04-16T06:46:30;10.30;80.10
76172;DHT22;64929;51.178;4.138;2023-04-16T06:48:56;10.20;80.60
76172;DHT22;64929;51.178;4.138;2023-04-16T06:51:22;10.20;80.60
76172;DHT22;64929;51.178;4.138;2023-04-16T06:53:48;10.30;80.10
76172;DHT22;64929;51.178;4.138;2023-04-16T06:56:13;10.50;79.20
76172;DHT22;64929;51.178;4.138;2023-04-16T06:58:39;10.40;79.80
76172;DHT22;64929;51.178;4.138;2023-04-16T07:01:05;10.30;80.30
76172;DHT22;64929;51.178;4.138;2023-04-16T07:03:31;10.30;80.50
76172;DHT22;64929;51.178;4.138;2023-04-16T07:05:57;10.40;80.40
76172;DHT22;64929;51.178;4.138;2023-04-16T07:08:22;10.40;80.10
76172;DHT22;64929;51.178;4.138;2023-04-16T07:10:49;10.40;80.40
76172;DHT22;64929;51.178;4.138;2023-04-16T07:13:14;10.30;80.50
76172;DHT22;64929;51.178;4.138;2023-04-16T07:15:40;10.30;80.80
76172;DHT22;64929;51.178;4.138;2023-04-16T07:18:06;10.50;80.30
76172;DHT22;64929;51.178;4.138;2023-04-16T07:20:31;10.40;80.40
76172;DHT22;64929;51.178;4.138;2023-04-16T07:22:57;10.50;80.20
76172;DHT22;64929;51.178;4.138;2023-04-16T07:25:24;10.40;80.30
76172;DHT22;64929;51.178;4.138;2023-04-16T07:27:50;10.50;80.50
76172;DHT22;64929;51.178;4.138;2023-04-16T07:30:16;10.50;79.80
76172;DHT22;64929;51.178;4.138;2023-04-16T07:32:42;10.60;79.60
76172;DHT22;64929;51.178;4.138;2023-04-16T07:35:08;10.50;80.20
76172;DHT22;64929;51.178;4.138;2023-04-16T07:37:33;10.50;80.20
76172;DHT22;64929;51.178;4.138;2023-04-16T07:39:59;10.60;80.20
76172;DHT22;64929;51.178;4.138;2023-04-16T07:42:26;10.70;79.90
76172;DHT22;64929;51.178;4.138;2023-04-16T07:44:52;10.80;79.20
76172;DHT22;64929;51.178;4.138;2023-04-16T07:47:17;10.80;79.00
76172;DHT22;64929;51.178;4.138;2023-04-16T07:49:43;10.70;79.00
76172;DHT22;64929;51.178;4.138;2023-04-16T07:52:09;10.80;78.90
76172;DHT22;64929;51.178;4.138;2023-04-16T07:54:34;10.70;79.40
76172;DHT22;64929;51.178;4.138;2023-04-16T07:57:00;10.90;78.90
76172;DHT22;64929;51.178;4.138;2023-04-16T07:59:26;10.90;78.60
76172;DHT22;64929;51.178;4.138;2023-04-16T08:01:52;10.90;78.60
76172;DHT22;64929;51.178;4.138;2023-04-16T08:04:21;10.90;78.60
76172;DHT22;64929;51.178;4.138;2023-04-16T08:06:50;10.90;77.90
76172;DHT22;64929;51.178;4.138;2023-04-16T08:09:16;11.10;78.00
76172;DHT22;64929;51.178;4.138;2023-04-16T08:11:41;11.00;78.00
76172;DHT22;64929;51.178;4.138;2023-04-16T08:14:07;11.00;78.20
76172;DHT22;64929;51.178;4.138;2023-04-16T08:16:33;10.90;78.50
76172;DHT22;64929;51.178;4.138;2023-04-16T08:18:59;10.90;78.10
76172;DHT22;64929;51.178;4.138;2023-04-16T08:21:26;10.90;78.10
76172;DHT22;64929;51.178;4.138;2023-04-16T08:23:52;10.90;78.50
76172;DHT22;64929;51.178;4.138;2023-04-16T08:26:18;11.20;77.90
76172;DHT22;64929;51.178;4.138;2023-04-16T08:28:44;11.10;77.30
76172;DHT22;64929;51.178;4.138;2023-04-16T08:31:10;11.10;77.60
76172;DHT22;64929;51.178;4.138;2023-04-16T08:33:36;11.10;77.80
76172;DHT22;64929;51.178;4.138;2023-04-16T08:36:02;11.20;77.50
76172;DHT22;64929;51.178;4.138;2023-04-16T08:38:27;11.20;77.50
76172;DHT22;64929;51.178;4.138;2023-04-16T08:40:55;11.30;77.30
76172;DHT22;64929;51.178;4.138;2023-04-16T08:43:23;11.30;77.00
76172;DHT22;64929;51.178;4.138;2023-04-16T08:45:50;11.30;77.20
76172;DHT22;64929;51.178;4.138;2023-04-16T08:48:19;11.10;77.40
76172;DHT22;64929;51.178;4.138;2023-04-16T08:50:48;11.30;76.90
76172;DHT22;64929;51.178;4.138;2023-04-16T08:53:17;11.20;76.80
76172;DHT22;64929;51.178;4.138;2023-04-16T08:55:46;11.30;77.40
76172;DHT22;64929;51.178;4.138;2023-04-16T08:58:19;11.30;77.10
76172;DHT22;64929;51.178;4.138;2023-04-16T09:00:46;11.30;77.50
76172;DHT22;64929;51.178;4.138;2023-04-16T09:03:12;11.30;76.80
76172;DHT22;64929;51.178;4.138;2023-04-16T09:05:38;11.30;76.40
76172;DHT22;64929;51.178;4.138;2023-04-16T09:08:06;11.40;76.20
76172;DHT22;64929;51.178;4.138;2023-04-16T09:10:33;11.50;76.60
76172;DHT22;64929;51.178;4.138;2023-04-16T09:12:59;11.60;76.10
76172;DHT22;64929;51.178;4.138;2023-04-16T09:15:25;11.60;76.00
76172;DHT22;64929;51.178;4.138;2023-04-16T09:17:51;11.60;76.60
76172;DHT22;64929;51.178;4.138;2023-04-16T09:20:17;11.80;75.50
76172;DHT22;64929;51.178;4.138;2023-04-16T09:22:43;11.90;74.60
76172;DHT22;64929;51.178;4.138;2023-04-16T09:25:09;11.80;74.10
76172;DHT22;64929;51.178;4.138;2023-04-16T09:27:36;11.60;75.30
76172;DHT22;64929;51.178;4.138;2023-04-16T09:30:18;11.60;75.20
76172;DHT22;64929;51.178;4.138;2023-04-16T09:32:46;11.60;75.10
76172;DHT22;64929;51.178;4.138;2023-04-16T09:35:12;11.50;75.80
76172;DHT22;64929;51.178;4.138;2023-04-16T09:37:39;11.60;75.70
76172;DHT22;64929;51.178;4.138;2023-04-16T09:40:06;11.70;75.70
76172;DHT22;64929;51.178;4.138;2023-04-16T09:42:35;11.60;75.30
76172;DHT22;64929;51.178;4.138;2023-04-16T09:45:01;11.70;75.40
76172;DHT22;64929;51.178;4.138;2023-04-16T09:47:45;11.80;75.50
76172;DHT22;64929;51.178;4.138;2023-04-16T09:50:15;11.60;76.30
76172;DHT22;64929;51.178;4.138;2023-04-16T09:52:43;11.60;76.20
76172;DHT22;64929;51.178;4.138;2023-04-16T09:55:10;11.40;76.70
76172;DHT22;64929;51.178;4.138;2023-04-16T09:57:37;11.40;76.80
76172;DHT22;64929;51.178;4.138;2023-04-16T10:00:05;11.40;76.50
76172;DHT22;64929;51.178;4.138;2023-04-16T10:02:31;11.40;76.60
76172;DHT22;64929;51.178;4.138;2023-04-16T10:05:00;11.40;76.80
76172;DHT22;64929;51.178;4.138;2023-04-16T10:07:33;11.30;77.10
76172;DHT22;64929;51.178;4.138;2023-04-16T10:09:59;11.30;77.50
76172;DHT22;64929;51.178;4.138;2023-04-16T10:12:25;11.30;77.60
76172;DHT22;64929;51.178;4.138;2023-04-16T10:14:53;11.40;77.90
76172;DHT22;64929;51.178;4.138;2023-04-16T10:17:19;11.30;77.90
76172;DHT22;64929;51.178;4.138;2023-04-16T10:19:45;11.30;78.50
76172;DHT22;64929;51.178;4.138;2023-04-16T10:22:12;11.10;79.00
76172;DHT22;64929;51.178;4.138;2023-04-16T10:24:38;11.30;78.20
76172;DHT22;64929;51.178;4.138;2023-04-16T10:27:05;11.40;77.70
76172;DHT22;64929;51.178;4.138;2023-04-16T10:29:31;11.40;78.40
76172;DHT22;64929;51.178;4.138;2023-04-16T10:31:58;11.40;78.10
76172;DHT22;64929;51.178;4.138;2023-04-16T10:34:26;11.30;78.10
76172;DHT22;64929;51.178;4.138;2023-04-16T10:36:53;11.20;78.60
76172;DHT22;64929;51.178;4.138;2023-04-16T10:39:24;11.30;78.90
76172;DHT22;64929;51.178;4.138;2023-04-16T10:42:09;11.30;78.40
76172;DHT22;64929;51.178;4.138;2023-04-16T10:44:36;11.40;78.50
76172;DHT22;64929;51.178;4.138;2023-04-16T10:47:02;11.40;78.80
76172;DHT22;64929;51.178;4.138;2023-04-16T10:49:28;11.30;78.50
76172;DHT22;64929;51.178;4.138;2023-04-16T10:51:58;11.20;79.10
76172;DHT22;64929;51.178;4.138;2023-04-16T10:54:26;11.30;78.80
76172;DHT22;64929;51.178;4.138;2023-04-16T10:56:55;11.40;78.80
76172;DHT22;64929;51.178;4.138;2023-04-16T10:59:22;11.40;78.50
76172;DHT22;64929;51.178;4.138;2023-04-16T11:01:50;11.20;79.40
76172;DHT22;64929;51.178;4.138;2023-04-16T11:09:56;11.30;79.40
76172;DHT22;64929;51.178;4.138;2023-04-16T11:12:36;11.40;79.00
76172;DHT22;64929;51.178;4.138;2023-04-16T11:15:12;11.50;78.70
76172;DHT22;64929;51.178;4.138;2023-04-16T11:17:46;11.50;78.40
76172;DHT22;64929;51.178;4.138;2023-04-16T11:20:19;11.60;77.60
76172;DHT22;64929;51.178;4.138;2023-04-16T11:22:45;11.50;78.10
76172;DHT22;64929;51.178;4.138;2023-04-16T11:25:11;11.30;78.60
76172;DHT22;64929;51.178;4.138;2023-04-16T11:27:37;11.40;79.10
76172;DHT22;64929;51.178;4.138;2023-04-16T11:30:07;11.30;79.30
76172;DHT22;64929;51.178;4.138;2023-04-16T11:32:37;11.40;78.90
76172;DHT22;64929;51.178;4.138;2023-04-16T11:35:12;11.50;78.30
76172;DHT22;64929;51.178;4.138;2023-04-16T11:37:38;11.50;78.30
76172;DHT22;64929;51.178;4.138;2023-04-16T11:40:05;11.40;78.50
76172;DHT22;64929;51.178;4.138;2023-04-16T11:42:33;11.40;78.60
76172;DHT22;64929;51.178;4.138;2023-04-16T11:45:01;11.50;78.70
76172;DHT22;64929;51.178;4.138;2023-04-16T11:47:30;11.60;78.10
76172;DHT22;64929;51.178;4.138;2023-04-16T11:49:57;11.70;77.70
76172;DHT22;64929;51.178;4.138;2023-04-16T11:52:31;11.80;77.80
76172;DHT22;64929;51.178;4.138;2023-04-16T11:54:58;11.90;77.60
76172;DHT22;64929;51.178;4.138;2023-04-16T11:57:27;11.70;78.70
76172;DHT22;64929;51.178;4.138;2023-04-16T11:59:53;11.90;77.70
76172;DHT22;64929;51.178;4.138;2023-04-16T12:02:39;12.10;77.40
76172;DHT22;64929;51.178;4.138;2023-04-16T12:05:29;12.40;76.00
76172;DHT22;64929;51.178;4.138;2023-04-16T12:07:53;12.40;76.00
76172;DHT22;64929;51.178;4.138;2023-04-16T12:10:19;12.40;75.30
76172;DHT22;64929;51.178;4.138;2023-04-16T12:12:45;12.20;75.80
76172;DHT22;64929;51.178;4.138;2023-04-16T12:15:11;12.20;76.20
76172;DHT22;64929;51.178;4.138;2023-04-16T12:17:37;12.10;76.50
76172;DHT22;64929;51.178;4.138;2023-04-16T12:20:08;12.20;76.60
76172;DHT22;64929;51.178;4.138;2023-04-16T12:22:36;12.20;76.80
76172;DHT22;64929;51.178;4.138;2023-04-16T12:25:06;12.20;76.20
76172;DHT22;64929;51.178;4.138;2023-04-16T12:27:53;12.10;75.90
76172;DHT22;64929;51.178;4.138;2023-04-16T12:30:24;12.10;76.70
76172;DHT22;64929;51.178;4.138;2023-04-16T12:33:13;12.00;76.60
76172;DHT22;64929;51.178;4.138;2023-04-16T12:35:41;12.10;75.90
76172;DHT22;64929;51.178;4.138;2023-04-16T12:38:11;12.20;76.00
76172;DHT22;64929;51.178;4.138;2023-04-16T12:40:37;12.10;76.40
76172;DHT22;64929;51.178;4.138;2023-04-16T12:43:03;12.20;75.90
76172;DHT22;64929;51.178;4.138;2023-04-16T12:45:28;12.30;76.10
76172;DHT22;64929;51.178;4.138;2023-04-16T12:47:54;12.40;75.30
76172;DHT22;64929;51.178;4.138;2023-04-16T12:50:20;12.40;75.80
76172;DHT22;64929;51.178;4.138;2023-04-16T12:52:46;12.40;75.70
76172;DHT22;64929;51.178;4.138;2023-04-16T12:55:13;12.50;75.20
76172;DHT22;64929;51.178;4.138;2023-04-16T12:57:39;12.50;75.30
76172;DHT22;64929;51.178;4.138;2023-04-16T13:00:05;12.60;74.80
76172;DHT22;64929;51.178;4.138;2023-04-16T13:02:32;12.60;74.50
76172;DHT22;64929;51.178;4.138;2023-04-16T13:04:58;12.70;74.70
76172;DHT22;64929;51.178;4.138;2023-04-16T13:07:24;12.60;75.20
76172;DHT22;64929;51.178;4.138;2023-04-16T13:09:51;12.70;74.90
76172;DHT22;64929;51.178;4.138;2023-04-16T13:12:17;12.80;74.20
76172;DHT22;64929;51.178;4.138;2023-04-16T13:14:43;12.80;74.60
76172;DHT22;64929;51.178;4.138;2023-04-16T13:17:09;12.90;73.90
76172;DHT22;64929;51.178;4.138;2023-04-16T13:19:34;12.80;74.20
76172;DHT22;64929;51.178;4.138;2023-04-16T13:22:00;13.10;73.80
76172;DHT22;64929;51.178;4.138;2023-04-16T13:24:26;12.90;73.60
76172;DHT22;64929;51.178;4.138;2023-04-16T13:26:51;13.00;74.00
76172;DHT22;64929;51.178;4.138;2023-04-16T13:29:18;13.10;73.60
76172;DHT22;64929;51.178;4.138;2023-04-16T13:31:45;13.10;73.70
76172;DHT22;64929;51.178;4.138;2023-04-16T13:34:11;13.10;73.50
76172;DHT22;64929;51.178;4.138;2023-04-16T13:36:36;13.00;74.10
76172;DHT22;64929;51.178;4.138;2023-04-16T13:39:02;13.30;73.60
76172;DHT22;64929;51.178;4.138;2023-04-16T13:41:38;13.30;73.20
76172;DHT22;64929;51.178;4.138;2023-04-16T13:44:04;13.30;72.60
76172;DHT22;64929;51.178;4.138;2023-04-16T13:46:30;13.40;73.50
76172;DHT22;64929;51.178;4.138;2023-04-16T13:48:56;13.30;73.30
76172;DHT22;64929;51.178;4.138;2023-04-16T13:51:22;13.20;73.50
76172;DHT22;64929;51.178;4.138;2023-04-16T13:53:48;13.30;73.40
76172;DHT22;64929;51.178;4.138;2023-04-16T13:56:13;13.10;74.10
76172;DHT22;64929;51.178;4.138;2023-04-16T13:58:39;13.20;74.50
76172;DHT22;64929;51.178;4.138;2023-04-16T14:01:06;13.40;73.40
76172;DHT22;64929;51.178;4.138;2023-04-16T14:03:31;13.40;73.10
76172;DHT22;64929;51.178;4.138;2023-04-16T14:06:03;13.60;72.40
76172;DHT22;64929;51.178;4.138;2023-04-16T14:08:29;13.60;72.50
76172;DHT22;64929;51.178;4.138;2023-04-16T14:10:56;13.50;72.60
76172;DHT22;64929;51.178;4.138;2023-04-16T14:13:22;13.50;73.40
76172;DHT22;64929;51.178;4.138;2023-04-16T14:15:48;13.60;72.90
76172;DHT22;64929;51.178;4.138;2023-04-16T14:18:14;13.80;72.30
76172;DHT22;64929;51.178;4.138;2023-04-16T14:20:40;13.50;73.00
76172;DHT22;64929;51.178;4.138;2023-04-16T14:23:05;13.40;72.70
76172;DHT22;64929;51.178;4.138;2023-04-16T14:25:32;13.60;72.80
76172;DHT22;64929;51.178;4.138;2023-04-16T14:27:58;13.70;72.00
76172;DHT22;64929;51.178;4.138;2023-04-16T14:30:25;13.50;72.70
76172;DHT22;64929;51.178;4.138;2023-04-16T14:32:51;13.60;72.80
76172;DHT22;64929;51.178;4.138;2023-04-16T14:35:16;13.40;72.80
76172;DHT22;64929;51.178;4.138;2023-04-16T14:37:42;13.30;73.40
76172;DHT22;64929;51.178;4.138;2023-04-16T14:40:08;13.30;73.70
76172;DHT22;64929;51.178;4.138;2023-04-16T14:42:35;13.30;74.00
76172;DHT22;64929;51.178;4.138;2023-04-16T14:45:02;13.40;73.50
76172;DHT22;64929;51.178;4.138;2023-04-16T14:47:31;13.30;73.30
76172;DHT22;64929;51.178;4.138;2023-04-16T14:49:57;13.20;73.80
76172;DHT22;64929;51.178;4.138;2023-04-16T14:52:22;13.30;73.40
76172;DHT22;64929;51.178;4.138;2023-04-16T14:54:49;13.20;73.80
76172;DHT22;64929;51.178;4.138;2023-04-16T14:57:16;13.10;74.00
76172;DHT22;64929;51.178;4.138;2023-04-16T14:59:42;13.10;74.50
76172;DHT22;64929;51.178;4.138;2023-04-16T15:02:08;13.10;74.30
76172;DHT22;64929;51.178;4.138;2023-04-16T15:04:34;13.20;74.20
76172;DHT22;64929;51.178;4.138;2023-04-16T15:07:00;13.10;74.20
76172;DHT22;64929;51.178;4.138;2023-04-16T15:09:26;13.00;74.50
76172;DHT22;64929;51.178;4.138;2023-04-16T15:11:52;13.00;74.30
76172;DHT22;64929;51.178;4.138;2023-04-16T15:14:18;13.00;74.50
76172;DHT22;64929;51.178;4.138;2023-04-16T15:16:44;13.00;74.60
76172;DHT22;64929;51.178;4.138;2023-04-16T15:19:10;12.90;74.80
76172;DHT22;64929;51.178;4.138;2023-04-16T15:21:36;12.90;75.00
76172;DHT22;64929;51.178;4.138;2023-04-16T15:24:02;12.80;75.10
76172;DHT22;64929;51.178;4.138;2023-04-16T15:26:29;12.80;75.40
76172;DHT22;64929;51.178;4.138;2023-04-16T15:28:55;12.90;75.40
76172;DHT22;64929;51.178;4.138;2023-04-16T15:31:21;12.90;75.00
76172;DHT22;64929;51.178;4.138;2023-04-16T15:33:47;12.80;75.60